sensor_id;sensor_type;location;lat;lon;timestamp;pressure;altitude;pressure_sealevel;temperature;humidity
76132;BME280;64877;50.994;13.650;2022-11-12T00:02:06;101292.31;;;6.07;74.91
76132;BME280;64877;50.994;13.650;2022-11-12T00:04:31;101300.81;;;6.19;74.78
76132;BME280;64877;50.994;13.650;2022-11-12T00:06:56;101282.13;;;6.18;74.75
76132;BME280;64877;50.994;13.650;2022-11-12T00:09:22;101292.00;;;6.16;75.08
76132;BME280;64877;50.994;13.650;2022-11-12T00:11:47;101284.59;;;6.24;74.76
76132;BME280;64877;50.994;13.650;2022-11-12T00:14:12;101283.63;;;6.27;74.08
76132;BME280;64877;50.994;13.650;2022-11-12T00:16:38;101281.47;;;6.10;74.78
76132;BME280;64877;50.994;13.650;2022-11-12T00:19:03;101283.53;;;6.02;75.22
76132;BME280;64877;50.994;13.650;2022-11-12T00:21:29;101275.97;;;6.14;74.72
76132;BME280;64877;50.994;13.650;2022-11-12T00:23:54;101285.00;;;6.12;74.47
76132;BME280;64877;50.994;13.650;2022-11-12T00:26:19;101284.06;;;6.13;74.19
76132;BME280;64877;50.994;13.650;2022-11-12T00:28:45;101286.53;;;6.19;73.86
76132;BME280;64877;50.994;13.650;2022-11-12T00:31:10;101285.88;;;6.12;73.96
76132;BME280;64877;50.994;13.650;2022-11-12T00:33:40;101285.81;;;6.14;73.76
76132;BME280;64877;50.994;13.650;2022-11-12T00:36:07;101277.78;;;6.14;73.66
76132;BME280;64877;50.994;13.650;2022-11-12T00:38:32;101288.78;;;6.05;74.70
76132;BME280;64877;50.994;13.650;2022-11-12T00:40:58;101280.09;;;5.98;74.68
76132;BME280;64877;50.994;13.650;2022-11-12T00:43:24;101285.72;;;6.17;74.14
76132;BME280;64877;50.994;13.650;2022-11-12T00:45:49;101275.72;;;6.22;73.40
76132;BME280;64877;50.994;13.650;2022-11-12T00:48:15;101276.44;;;6.27;73.87
76132;BME280;64877;50.994;13.650;2022-11-12T00:50:40;101279.31;;;6.21;73.93
76132;BME280;64877;50.994;13.650;2022-11-12T00:53:05;101276.91;;;6.13;73.67
76132;BME280;64877;50.994;13.650;2022-11-12T00:55:31;101279.66;;;6.10;73.66
76132;BME280;64877;50.994;13.650;2022-11-12T00:57:57;101286.91;;;6.08;73.75
76132;BME280;64877;50.994;13.650;2022-11-12T01:00:23;101284.81;;;6.16;73.69
76132;BME280;64877;50.994;13.650;2022-11-12T01:02:49;101278.06;;;6.05;73.29
76132;BME280;64877;50.994;13.650;2022-11-12T01:05:15;101277.19;;;6.04;73.91
76132;BME280;64877;50.994;13.650;2022-11-12T01:07:40;101281.59;;;6.07;74.03
76132;BME280;64877;50.994;13.650;2022-11-12T01:10:07;101283.22;;;6.11;74.60
76132;BME280;64877;50.994;13.650;2022-11-12T01:12:32;101288.28;;;6.20;74.33
76132;BME280;64877;50.994;13.650;2022-11-12T01:14:58;101283.81;;;6.20;74.05
76132;BME280;64877;50.994;13.650;2022-11-12T01:17:23;101283.56;;;6.28;73.82
76132;BME280;64877;50.994;13.650;2022-11-12T01:19:49;101285.53;;;6.23;74.81
76132;BME280;64877;50.994;13.650;2022-11-12T01:22:14;101277.91;;;6.36;73.88
76132;BME280;64877;50.994;13.650;2022-11-12T01:24:40;101287.78;;;6.35;74.31
76132;BME280;64877;50.994;13.650;2022-11-12T01:27:05;101284.88;;;6.15;75.35
76132;BME280;64877;50.994;13.650;2022-11-12T01:29:31;101283.03;;;6.17;75.33
76132;BME280;64877;50.994;13.650;2022-11-12T01:31:56;101280.75;;;6.05;76.34
76132;BME280;64877;50.994;13.650;2022-11-12T01:34:22;101280.53;;;6.11;75.54
76132;BME280;64877;50.994;13.650;2022-11-12T01:36:47;101285.31;;;6.03;75.54
76132;BME280;64877;50.994;13.650;2022-11-12T01:39:13;101277.03;;;6.09;75.87
76132;BME280;64877;50.994;13.650;2022-11-12T01:41:39;101281.25;;;6.17;76.30
76132;BME280;64877;50.994;13.650;2022-11-12T01:44:20;101280.25;;;6.20;76.54
76132;BME280;64877;50.994;13.650;2022-11-12T01:47:16;101284.00;;;6.14;75.61
76132;BME280;64877;50.994;13.650;2022-11-12T01:49:48;101286.38;;;5.97;75.84
76132;BME280;64877;50.994;13.650;2022-11-12T01:52:22;101276.78;;;6.16;75.83
76132;BME280;64877;50.994;13.650;2022-11-12T01:54:51;101280.66;;;6.08;75.62
76132;BME280;64877;50.994;13.650;2022-11-12T01:57:23;101285.78;;;5.87;75.91
76132;BME280;64877;50.994;13.650;2022-11-12T01:59:53;101285.31;;;6.03;76.05
76132;BME280;64877;50.994;13.650;2022-11-12T02:02:20;101289.22;;;5.92;76.00
76132;BME280;64877;50.994;13.650;2022-11-12T02:04:45;101284.44;;;6.02;75.85
76132;BME280;64877;50.994;13.650;2022-11-12T02:07:12;101290.59;;;6.04;75.71
76132;BME280;64877;50.994;13.650;2022-11-12T02:09:38;101282.63;;;6.03;75.32
76132;BME280;64877;50.994;13.650;2022-11-12T02:12:04;101278.78;;;6.10;74.38
76132;BME280;64877;50.994;13.650;2022-11-12T02:14:30;101279.16;;;5.99;75.54
76132;BME280;64877;50.994;13.650;2022-11-12T02:16:57;101274.00;;;5.93;75.65
76132;BME280;64877;50.994;13.650;2022-11-12T02:19:22;101276.88;;;5.85;75.84
76132;BME280;64877;50.994;13.650;2022-11-12T02:21:48;101278.50;;;5.92;75.42
76132;BME280;64877;50.994;13.650;2022-11-12T02:26:45;101271.13;;;5.69;76.74
76132;BME280;64877;50.994;13.650;2022-11-12T02:29:13;101276.56;;;5.66;75.94
76132;BME280;64877;50.994;13.650;2022-11-12T02:31:38;101275.03;;;5.87;75.55
76132;BME280;64877;50.994;13.650;2022-11-12T02:34:03;101284.72;;;5.93;75.17
76132;BME280;64877;50.994;13.650;2022-11-12T02:36:29;101274.91;;;5.90;74.91
76132;BME280;64877;50.994;13.650;2022-11-12T02:38:55;101274.09;;;5.88;74.86
76132;BME280;64877;50.994;13.650;2022-11-12T02:41:21;101270.06;;;5.75;75.75
76132;BME280;64877;50.994;13.650;2022-11-12T02:43:46;101273.38;;;5.83;75.53
76132;BME280;64877;50.994;13.650;2022-11-12T02:46:12;101270.56;;;5.88;76.17
76132;BME280;64877;50.994;13.650;2022-11-12T02:48:38;101275.53;;;6.00;74.96
76132;BME280;64877;50.994;13.650;2022-11-12T02:51:04;101270.22;;;5.99;74.91
76132;BME280;64877;50.994;13.650;2022-11-12T02:53:29;101273.88;;;5.96;74.13
76132;BME280;64877;50.994;13.650;2022-11-12T02:55:57;101276.06;;;5.83;75.05
76132;BME280;64877;50.994;13.650;2022-11-12T02:58:22;101281.31;;;5.86;75.21
76132;BME280;64877;50.994;13.650;2022-11-12T03:00:48;101285.78;;;5.87;75.11
76132;BME280;64877;50.994;13.650;2022-11-12T03:03:13;101287.34;;;5.94;74.63
76132;BME280;64877;50.994;13.650;2022-11-12T03:05:39;101288.13;;;5.98;74.67
76132;BME280;64877;50.994;13.650;2022-11-12T03:08:05;101277.34;;;6.00;74.66
76132;BME280;64877;50.994;13.650;2022-11-12T03:10:31;101285.59;;;5.93;75.96
76132;BME280;64877;50.994;13.650;2022-11-12T03:12:59;101281.91;;;5.98;75.58
76132;BME280;64877;50.994;13.650;2022-11-12T03:15:25;101285.38;;;6.00;75.87
76132;BME280;64877;50.994;13.650;2022-11-12T03:17:52;101287.25;;;5.98;75.99
76132;BME280;64877;50.994;13.650;2022-11-12T03:20:18;101285.59;;;5.93;75.59
76132;BME280;64877;50.994;13.650;2022-11-12T03:22:58;101279.31;;;5.94;75.23
76132;BME280;64877;50.994;13.650;2022-11-12T03:25:25;101276.88;;;5.85;75.50
76132;BME280;64877;50.994;13.650;2022-11-12T03:28:08;101284.75;;;5.91;74.93
76132;BME280;64877;50.994;13.650;2022-11-12T03:30:36;101287.75;;;5.81;76.28
76132;BME280;64877;50.994;13.650;2022-11-12T03:33:02;101290.53;;;5.78;76.34
76132;BME280;64877;50.994;13.650;2022-11-12T03:35:28;101290.34;;;5.84;76.31
76132;BME280;64877;50.994;13.650;2022-11-12T03:37:54;101284.19;;;5.80;76.08
76132;BME280;64877;50.994;13.650;2022-11-12T03:40:20;101300.06;;;5.58;76.51
76132;BME280;64877;50.994;13.650;2022-11-12T03:42:46;101288.81;;;5.75;75.79
76132;BME280;64877;50.994;13.650;2022-11-12T03:45:13;101284.75;;;5.91;75.56
76132;BME280;64877;50.994;13.650;2022-11-12T03:47:46;101285.66;;;5.90;75.14
76132;BME280;64877;50.994;13.650;2022-11-12T03:50:12;101282.41;;;5.51;77.04
76132;BME280;64877;50.994;13.650;2022-11-12T03:52:38;101286.81;;;5.54;76.58
76132;BME280;64877;50.994;13.650;2022-11-12T03:55:08;101293.69;;;5.62;75.98
76132;BME280;64877;50.994;13.650;2022-11-12T03:57:33;101284.31;;;5.77;75.09
76132;BME280;64877;50.994;13.650;2022-11-12T03:59:58;101283.41;;;5.77;74.34
76132;BME280;64877;50.994;13.650;2022-11-12T04:02:24;101289.69;;;5.76;75.73
76132;BME280;64877;50.994;13.650;2022-11-12T04:04:54;101287.75;;;5.81;74.63
76132;BME280;64877;50.994;13.650;2022-11-12T04:07:38;101294.19;;;5.45;77.11
76132;BME280;64877;50.994;13.650;2022-11-12T04:10:22;101297.41;;;5.58;75.98
76132;BME280;64877;50.994;13.650;2022-11-12T04:12:47;101298.22;;;5.60;75.82
76132;BME280;64877;50.994;13.650;2022-11-12T04:15:31;101297.63;;;5.51;77.19
76132;BME280;64877;50.994;13.650;2022-11-12T04:17:56;101308.53;;;5.44;76.24
76132;BME280;64877;50.994;13.650;2022-11-12T04:20:40;101297.41;;;5.57;77.01
76132;BME280;64877;50.994;13.650;2022-11-12T04:23:24;101294.31;;;5.42;77.42
76132;BME280;64877;50.994;13.650;2022-11-12T04:25:49;101304.03;;;5.45;76.71
76132;BME280;64877;50.994;13.650;2022-11-12T04:28:33;101296.84;;;5.47;77.03
76132;BME280;64877;50.994;13.650;2022-11-12T04:30:58;101301.09;;;5.54;76.55
76132;BME280;64877;50.994;13.650;2022-11-12T04:33:24;101300.06;;;5.29;77.18
76132;BME280;64877;50.994;13.650;2022-11-12T04:35:49;101299.19;;;5.28;77.85
76132;BME280;64877;50.994;13.650;2022-11-12T04:38:14;101299.66;;;5.11;77.99
76132;BME280;64877;50.994;13.650;2022-11-12T04:40:40;101308.00;;;5.01;78.87
76132;BME280;64877;50.994;13.650;2022-11-12T04:43:23;101303.78;;;4.92;78.42
76132;BME280;64877;50.994;13.650;2022-11-12T04:46:08;101303.13;;;4.84;78.42
76132;BME280;64877;50.994;13.650;2022-11-12T04:48:34;101294.66;;;4.99;77.68
76132;BME280;64877;50.994;13.650;2022-11-12T04:51:01;101298.72;;;5.14;76.56
76132;BME280;64877;50.994;13.650;2022-11-12T04:53:28;101301.88;;;5.28;76.74
76132;BME280;64877;50.994;13.650;2022-11-12T04:55:56;101302.22;;;5.16;77.52
76132;BME280;64877;50.994;13.650;2022-11-12T04:58:22;101308.09;;;4.98;78.00
76132;BME280;64877;50.994;13.650;2022-11-12T05:00:48;101306.50;;;4.90;77.52
76132;BME280;64877;50.994;13.650;2022-11-12T05:03:15;101308.25;;;4.91;77.76
76132;BME280;64877;50.994;13.650;2022-11-12T05:05:40;101303.19;;;4.82;78.05
76132;BME280;64877;50.994;13.650;2022-11-12T05:08:06;101307.50;;;4.86;77.79
76132;BME280;64877;50.994;13.650;2022-11-12T05:10:31;101309.19;;;4.90;76.96
76132;BME280;64877;50.994;13.650;2022-11-12T05:12:57;101313.41;;;4.99;77.50
76132;BME280;64877;50.994;13.650;2022-11-12T05:15:22;101316.25;;;4.93;77.21
76132;BME280;64877;50.994;13.650;2022-11-12T05:17:48;101316.41;;;4.87;77.16
76132;BME280;64877;50.994;13.650;2022-11-12T05:20:14;101325.13;;;4.95;77.24
76132;BME280;64877;50.994;13.650;2022-11-12T05:22:40;101315.97;;;5.04;76.81
76132;BME280;64877;50.994;13.650;2022-11-12T05:25:06;101320.75;;;4.92;77.56
76132;BME280;64877;50.994;13.650;2022-11-12T05:27:32;101322.03;;;4.78;77.82
76132;BME280;64877;50.994;13.650;2022-11-12T05:29:58;101331.75;;;4.80;78.09
76132;BME280;64877;50.994;13.650;2022-11-12T05:32:23;101330.97;;;4.77;77.17
76132;BME280;64877;50.994;13.650;2022-11-12T05:34:49;101327.22;;;4.84;77.36
76132;BME280;64877;50.994;13.650;2022-11-12T05:37:15;101329.78;;;4.88;77.22
76132;BME280;64877;50.994;13.650;2022-11-12T05:39:40;101325.41;;;4.84;77.08
76132;BME280;64877;50.994;13.650;2022-11-12T05:42:06;101329.59;;;4.95;76.96
76132;BME280;64877;50.994;13.650;2022-11-12T05:44:32;101328.03;;;4.86;76.66
76132;BME280;64877;50.994;13.650;2022-11-12T05:46:57;101325.53;;;4.80;76.70
76132;BME280;64877;50.994;13.650;2022-11-12T05:49:23;101328.34;;;4.75;77.63
76132;BME280;64877;50.994;13.650;2022-11-12T05:51:48;101332.63;;;4.81;76.99
76132;BME280;64877;50.994;13.650;2022-11-12T05:54:14;101338.78;;;4.84;78.00
76132;BME280;64877;50.994;13.650;2022-11-12T05:56:39;101337.13;;;4.80;77.87
76132;BME280;64877;50.994;13.650;2022-11-12T05:59:09;101342.13;;;4.60;79.07
76132;BME280;64877;50.994;13.650;2022-11-12T06:01:34;101344.78;;;4.60;79.11
76132;BME280;64877;50.994;13.650;2022-11-12T06:04:11;101342.50;;;4.45;79.12
76132;BME280;64877;50.994;13.650;2022-11-12T06:06:37;101350.94;;;4.63;78.28
76132;BME280;64877;50.994;13.650;2022-11-12T06:09:03;101351.91;;;4.61;78.45
76132;BME280;64877;50.994;13.650;2022-11-12T06:11:29;101352.75;;;4.63;78.38
76132;BME280;64877;50.994;13.650;2022-11-12T06:13:54;101355.09;;;4.75;77.92
76132;BME280;64877;50.994;13.650;2022-11-12T06:16:20;101351.19;;;4.88;76.65
76132;BME280;64877;50.994;13.650;2022-11-12T06:18:45;101355.44;;;4.96;75.82
76132;BME280;64877;50.994;13.650;2022-11-12T06:21:11;101358.00;;;4.68;77.13
76132;BME280;64877;50.994;13.650;2022-11-12T06:24:06;101358.00;;;4.68;77.31
76132;BME280;64877;50.994;13.650;2022-11-12T06:26:32;101361.72;;;4.60;77.04
76132;BME280;64877;50.994;13.650;2022-11-12T06:28:57;101361.16;;;4.48;77.35
76132;BME280;64877;50.994;13.650;2022-11-12T06:31:23;101355.44;;;4.61;76.66
76132;BME280;64877;50.994;13.650;2022-11-12T06:33:48;101356.81;;;4.44;77.65
76132;BME280;64877;50.994;13.650;2022-11-12T06:36:16;101354.25;;;4.37;77.91
76132;BME280;64877;50.994;13.650;2022-11-12T06:38:42;101359.38;;;4.47;77.30
76132;BME280;64877;50.994;13.650;2022-11-12T06:41:10;101362.06;;;4.47;77.02
76132;BME280;64877;50.994;13.650;2022-11-12T06:43:36;101361.41;;;4.38;77.58
76132;BME280;64877;50.994;13.650;2022-11-12T06:46:07;101362.97;;;4.46;78.05
76132;BME280;64877;50.994;13.650;2022-11-12T06:48:33;101364.34;;;4.62;76.05
76132;BME280;64877;50.994;13.650;2022-11-12T06:51:08;101361.59;;;4.65;76.25
76132;BME280;64877;50.994;13.650;2022-11-12T06:53:34;101355.03;;;4.78;75.94
76132;BME280;64877;50.994;13.650;2022-11-12T06:56:04;101356.75;;;5.13;75.15
76132;BME280;64877;50.994;13.650;2022-11-12T06:58:29;101363.66;;;5.22;74.63
76132;BME280;64877;50.994;13.650;2022-11-12T07:00:55;101355.00;;;5.43;73.48
76132;BME280;64877;50.994;13.650;2022-11-12T07:03:20;101356.28;;;5.60;72.38
76132;BME280;64877;50.994;13.650;2022-11-12T07:05:46;101357.81;;;5.68;72.70
76132;BME280;64877;50.994;13.650;2022-11-12T07:08:11;101367.88;;;5.91;71.73
76132;BME280;64877;50.994;13.650;2022-11-12T07:10:36;101355.09;;;6.00;71.40
76132;BME280;64877;50.994;13.650;2022-11-12T07:13:02;101351.00;;;6.16;70.92
76132;BME280;64877;50.994;13.650;2022-11-12T07:15:27;101343.91;;;6.41;69.73
76132;BME280;64877;50.994;13.650;2022-11-12T07:17:53;101348.78;;;6.57;69.59
76132;BME280;64877;50.994;13.650;2022-11-12T07:20:18;101360.44;;;6.56;69.72
76132;BME280;64877;50.994;13.650;2022-11-12T07:22:43;101354.66;;;6.68;69.44
76132;BME280;64877;50.994;13.650;2022-11-12T07:25:09;101358.44;;;6.62;69.21
76132;BME280;64877;50.994;13.650;2022-11-12T07:27:34;101353.63;;;6.72;69.25
76132;BME280;64877;50.994;13.650;2022-11-12T07:30:00;101348.13;;;6.75;68.03
76132;BME280;64877;50.994;13.650;2022-11-12T07:32:25;101353.09;;;6.61;69.21
76132;BME280;64877;50.994;13.650;2022-11-12T07:34:50;101348.28;;;6.70;68.86
76132;BME280;64877;50.994;13.650;2022-11-12T07:37:16;101356.31;;;6.72;68.33
76132;BME280;64877;50.994;13.650;2022-11-12T07:39:41;101351.91;;;6.69;68.51
76132;BME280;64877;50.994;13.650;2022-11-12T07:42:06;101344.22;;;6.59;68.65
76132;BME280;64877;50.994;13.650;2022-11-12T07:44:32;101348.28;;;6.70;67.87
76132;BME280;64877;50.994;13.650;2022-11-12T07:46:57;101349.94;;;6.74;68.44
76132;BME280;64877;50.994;13.650;2022-11-12T07:49:22;101346.78;;;6.88;67.35
76132;BME280;64877;50.994;13.650;2022-11-12T07:51:48;101352.59;;;7.01;68.54
76132;BME280;64877;50.994;13.650;2022-11-12T07:54:13;101346.56;;;7.19;66.51
76132;BME280;64877;50.994;13.650;2022-11-12T07:56:38;101346.41;;;7.24;66.17
76132;BME280;64877;50.994;13.650;2022-11-12T07:59:04;101345.53;;;7.23;65.53
76132;BME280;64877;50.994;13.650;2022-11-12T08:01:32;101346.69;;;7.16;66.18
76132;BME280;64877;50.994;13.650;2022-11-12T08:03:58;101343.81;;;7.21;67.38
76132;BME280;64877;50.994;13.650;2022-11-12T08:06:24;101344.41;;;7.29;67.34
76132;BME280;64877;50.994;13.650;2022-11-12T08:08:51;101343.84;;;7.68;66.95
76132;BME280;64877;50.994;13.650;2022-11-12T08:11:17;101344.41;;;7.99;65.59
76132;BME280;64877;50.994;13.650;2022-11-12T08:13:42;101350.94;;;8.16;65.21
76132;BME280;64877;50.994;13.650;2022-11-12T08:16:08;101344.03;;;8.09;65.69
76132;BME280;64877;50.994;13.650;2022-11-12T08:18:33;101343.25;;;7.83;66.93
76132;BME280;64877;50.994;13.650;2022-11-12T08:21:00;101339.53;;;7.87;66.52
76132;BME280;64877;50.994;13.650;2022-11-12T08:23:25;101336.66;;;7.92;66.93
76132;BME280;64877;50.994;13.650;2022-11-12T08:25:51;101338.22;;;7.97;67.27
76132;BME280;64877;50.994;13.650;2022-11-12T08:28:16;101343.56;;;8.21;66.00
76132;BME280;64877;50.994;13.650;2022-11-12T08:30:41;101341.50;;;8.06;66.70
76132;BME280;64877;50.994;13.650;2022-11-12T08:33:07;101343.78;;;8.15;66.40
76132;BME280;64877;50.994;13.650;2022-11-12T08:35:32;101339.09;;;8.20;65.11
76132;BME280;64877;50.994;13.650;2022-11-12T08:38:03;101344.34;;;8.46;64.75
76132;BME280;64877;50.994;13.650;2022-11-12T08:40:30;101339.75;;;8.48;65.06
76132;BME280;64877;50.994;13.650;2022-11-12T08:43:00;101339.50;;;8.75;64.98
76132;BME280;64877;50.994;13.650;2022-11-12T08:45:27;101337.50;;;8.80;63.69
76132;BME280;64877;50.994;13.650;2022-11-12T08:47:57;101339.13;;;8.84;64.64
76132;BME280;64877;50.994;13.650;2022-11-12T08:50:23;101335.22;;;8.91;64.96
76132;BME280;64877;50.994;13.650;2022-11-12T08:52:49;101332.38;;;9.15;65.52
76132;BME280;64877;50.994;13.650;2022-11-12T08:55:14;101330.56;;;9.36;65.01
76132;BME280;64877;50.994;13.650;2022-11-12T08:57:40;101323.66;;;9.87;62.89
76132;BME280;64877;50.994;13.650;2022-11-12T09:00:10;101320.13;;;10.22;62.66
76132;BME280;64877;50.994;13.650;2022-11-12T09:02:36;101317.09;;;10.47;61.91
76132;BME280;64877;50.994;13.650;2022-11-12T09:05:02;101328.88;;;10.81;61.25
76132;BME280;64877;50.994;13.650;2022-11-12T09:07:27;101320.47;;;11.04;59.62
76132;BME280;64877;50.994;13.650;2022-11-12T09:09:52;101319.66;;;11.20;58.21
76132;BME280;64877;50.994;13.650;2022-11-12T09:12:18;101315.38;;;11.49;56.59
76132;BME280;64877;50.994;13.650;2022-11-12T09:14:44;101320.19;;;11.59;55.18
76132;BME280;64877;50.994;13.650;2022-11-12T09:17:11;101324.91;;;11.72;54.65
76132;BME280;64877;50.994;13.650;2022-11-12T09:19:36;101315.50;;;11.79;55.04
76132;BME280;64877;50.994;13.650;2022-11-12T09:22:02;101314.84;;;11.91;55.04
76132;BME280;64877;50.994;13.650;2022-11-12T09:24:28;101314.47;;;12.13;53.69
76132;BME280;64877;50.994;13.650;2022-11-12T09:26:53;101310.69;;;12.31;52.78
76132;BME280;64877;50.994;13.650;2022-11-12T09:29:19;101306.88;;;12.65;51.61
76132;BME280;64877;50.994;13.650;2022-11-12T09:31:45;101299.47;;;13.42;50.20
76132;BME280;64877;50.994;13.650;2022-11-12T09:34:10;101295.69;;;14.41;48.67
76132;BME280;64877;50.994;13.650;2022-11-12T09:36:36;101279.56;;;16.53;43.25
76132;BME280;64877;50.994;13.650;2022-11-12T09:39:01;101275.78;;;19.11;37.45
76132;BME280;64877;50.994;13.650;2022-11-12T09:41:37;101265.44;;;19.66;35.62
76132;BME280;64877;50.994;13.650;2022-11-12T09:44:09;101259.81;;;20.18;34.12
76132;BME280;64877;50.994;13.650;2022-11-12T09:49:20;101245.41;;;21.77;31.64
76132;BME280;64877;50.994;13.650;2022-11-12T09:51:51;101257.66;;;23.35;29.20
76132;BME280;64877;50.994;13.650;2022-11-12T09:54:23;101244.19;;;24.01;27.57
76132;BME280;64877;50.994;13.650;2022-11-12T09:56:51;101238.84;;;25.15;26.26
76132;BME280;64877;50.994;13.650;2022-11-12T09:59:17;101235.34;;;25.29;25.71
76132;BME280;64877;50.994;13.650;2022-11-12T10:04:54;101232.78;;;26.45;25.07
76132;BME280;64877;50.994;13.650;2022-11-12T10:18:52;101246.47;;;26.70;24.58
76132;BME280;64877;50.994;13.650;2022-11-12T10:21:45;101236.09;;;26.10;24.90
76132;BME280;64877;50.994;13.650;2022-11-12T10:24:15;101244.88;;;25.18;25.95
76132;BME280;64877;50.994;13.650;2022-11-12T10:26:40;101242.25;;;23.85;27.37
76132;BME280;64877;50.994;13.650;2022-11-12T10:32:21;101250.34;;;19.51;32.64
76132;BME280;64877;50.994;13.650;2022-11-12T10:34:47;101249.50;;;18.34;35.90
76132;BME280;64877;50.994;13.650;2022-11-12T10:37:26;101252.59;;;17.19;38.57
76132;BME280;64877;50.994;13.650;2022-11-12T10:39:53;101258.47;;;16.55;40.55
76132;BME280;64877;50.994;13.650;2022-11-12T10:42:20;101255.81;;;15.95;42.41
76132;BME280;64877;50.994;13.650;2022-11-12T10:44:46;101258.41;;;15.60;44.25
76132;BME280;64877;50.994;13.650;2022-11-12T10:47:26;101261.94;;;15.23;46.31
76132;BME280;64877;50.994;13.650;2022-11-12T10:52:52;101272.16;;;14.94;47.40
76132;BME280;64877;50.994;13.650;2022-11-12T10:55:20;101266.16;;;14.89;48.22
76132;BME280;64877;50.994;13.650;2022-11-12T10:58:02;101267.97;;;14.76;49.32
76132;BME280;64877;50.994;13.650;2022-11-12T11:00:27;101262.19;;;14.55;50.95
76132;BME280;64877;50.994;13.650;2022-11-12T11:02:53;101258.06;;;14.35;51.29
76132;BME280;64877;50.994;13.650;2022-11-12T11:05:37;101262.25;;;14.27;51.92
76132;BME280;64877;50.994;13.650;2022-11-12T11:08:11;101267.97;;;14.09;53.11
76132;BME280;64877;50.994;13.650;2022-11-12T11:10:37;101261.59;;;13.96;52.82
76132;BME280;64877;50.994;13.650;2022-11-12T11:13:09;101262.41;;;13.84;52.93
76132;BME280;64877;50.994;13.650;2022-11-12T11:15:35;101260.28;;;13.75;52.99
76132;BME280;64877;50.994;13.650;2022-11-12T11:18:01;101271.75;;;13.65;54.03
76132;BME280;64877;50.994;13.650;2022-11-12T11:20:36;101269.25;;;13.48;55.17
76132;BME280;64877;50.994;13.650;2022-11-12T11:23:17;101268.16;;;13.22;62.06
76132;BME280;64877;50.994;13.650;2022-11-12T11:25:46;101270.91;;;12.92;56.22
76132;BME280;64877;50.994;13.650;2022-11-12T11:28:35;101275.72;;;12.73;64.28
76132;BME280;64877;50.994;13.650;2022-11-12T11:31:17;101273.16;;;12.55;61.90
76132;BME280;64877;50.994;13.650;2022-11-12T11:33:47;101272.28;;;12.55;60.01
76132;BME280;64877;50.994;13.650;2022-11-12T11:36:29;101268.78;;;12.53;54.41
76132;BME280;64877;50.994;13.650;2022-11-12T11:41:52;101265.16;;;12.38;53.63
76132;BME280;64877;50.994;13.650;2022-11-12T11:44:50;101267.25;;;12.33;58.86
76132;BME280;64877;50.994;13.650;2022-11-12T11:47:31;101264.97;;;12.41;53.83
76132;BME280;64877;50.994;13.650;2022-11-12T11:50:02;101252.84;;;12.32;55.86
76132;BME280;64877;50.994;13.650;2022-11-12T11:55:27;101254.13;;;12.41;52.82
76132;BME280;64877;50.994;13.650;2022-11-12T12:00:48;101246.50;;;12.33;55.45
76132;BME280;64877;50.994;13.650;2022-11-12T12:03:18;101248.28;;;12.33;56.29
76132;BME280;64877;50.994;13.650;2022-11-12T12:06:17;101245.59;;;12.33;53.45
76132;BME280;64877;50.994;13.650;2022-11-12T12:09:26;101242.47;;;12.25;60.03
76132;BME280;64877;50.994;13.650;2022-11-12T12:12:09;101238.56;;;12.14;61.36
76132;BME280;64877;50.994;13.650;2022-11-12T12:17:35;101235.72;;;11.86;66.53
76132;BME280;64877;50.994;13.650;2022-11-12T12:20:26;101225.63;;;11.72;66.26
76132;BME280;64877;50.994;13.650;2022-11-12T12:23:22;101222.25;;;11.69;61.82
76132;BME280;64877;50.994;13.650;2022-11-12T12:25:52;101217.88;;;11.66;66.09
76132;BME280;64877;50.994;13.650;2022-11-12T12:30:50;101214.75;;;11.74;56.09
76132;BME280;64877;50.994;13.650;2022-11-12T12:33:42;101215.50;;;11.76;66.30
76132;BME280;64877;50.994;13.650;2022-11-12T12:36:41;101212.03;;;11.74;60.32
76132;BME280;64877;50.994;13.650;2022-11-12T12:39:16;101223.63;;;11.76;64.05
76132;BME280;64877;50.994;13.650;2022-11-12T12:44:19;101214.16;;;11.84;58.23
76132;BME280;64877;50.994;13.650;2022-11-12T12:46:51;101205.84;;;11.87;62.54
76132;BME280;64877;50.994;13.650;2022-11-12T12:49:33;101212.47;;;11.82;65.54
76132;BME280;64877;50.994;13.650;2022-11-12T12:52:01;101208.38;;;11.75;60.45
76132;BME280;64877;50.994;13.650;2022-11-12T12:57:38;101210.53;;;11.68;66.44
76132;BME280;64877;50.994;13.650;2022-11-12T13:02:52;101212.00;;;11.58;67.85
76132;BME280;64877;50.994;13.650;2022-11-12T13:05:29;101216.13;;;11.49;68.97
76132;BME280;64877;50.994;13.650;2022-11-12T13:07:59;101207.22;;;11.47;67.48
76132;BME280;64877;50.994;13.650;2022-11-12T13:15:42;101204.25;;;11.68;57.44
76132;BME280;64877;50.994;13.650;2022-11-12T13:18:08;101209.34;;;11.74;60.78
76132;BME280;64877;50.994;13.650;2022-11-12T13:20:41;101206.94;;;11.68;66.45
76132;BME280;64877;50.994;13.650;2022-11-12T13:23:40;101211.22;;;11.72;60.04
76132;BME280;64877;50.994;13.650;2022-11-12T13:32:27;101210.56;;;11.84;60.73
76132;BME280;64877;50.994;13.650;2022-11-12T13:43:29;101205.81;;;12.03;59.92
76132;BME280;64877;50.994;13.650;2022-11-12T13:48:39;101204.50;;;12.10;55.05
76132;BME280;64877;50.994;13.650;2022-11-12T13:51:12;101194.44;;;12.12;57.36
76132;BME280;64877;50.994;13.650;2022-11-12T13:53:39;101196.75;;;12.04;60.06
76132;BME280;64877;50.994;13.650;2022-11-12T13:56:04;101199.19;;;12.09;55.56
76132;BME280;64877;50.994;13.650;2022-11-12T13:58:32;101191.41;;;12.03;62.02
76132;BME280;64877;50.994;13.650;2022-11-12T14:00:59;101197.41;;;12.08;54.92
76132;BME280;64877;50.994;13.650;2022-11-12T14:03:34;101195.19;;;12.00;62.14
76132;BME280;64877;50.994;13.650;2022-11-12T14:06:05;101198.16;;;11.96;58.21
76132;BME280;64877;50.994;13.650;2022-11-12T14:08:46;101190.41;;;11.89;61.78